Time;durP1;ratioP1;P1;durP2;ratioP2;P2;SDS_P1;SDS_P2;PMS_P1;PMS_P2;Temp;Humidity;BMP_temperature;BMP_pressure;BME280_temperature;BME280_humidity;BME280_pressure;Samples;Min_cycle;Max_cycle;Signal;HPM_P1;HPM_P2
2021/12/09 00:01:13;;;;;;;0.70;0.50;;;2.50;99.90;;;;;;5035570;28;20475;-70
2021/12/09 00:03:40;;;;;;;0.70;0.40;;;2.50;99.90;;;;;;5035168;28;20460;-70
2021/12/09 00:06:08;;;;;;;0.70;0.40;;;2.50;99.90;;;;;;5035255;28;20448;-70
2021/12/09 00:08:34;;;;;;;0.70;0.40;;;2.50;99.90;;;;;;5035387;28;20407;-70
2021/12/09 00:11:03;;;;;;;1.10;1.00;;;2.40;99.90;;;;;;5066527;28;20796;-70
2021/12/09 00:13:29;;;;;;;0.70;0.40;;;2.50;99.90;;;;;;5034034;28;20405;-70
2021/12/09 00:15:55;;;;;;;0.70;0.70;;;2.50;99.90;;;;;;5034740;28;20457;-70
2021/12/09 00:18:21;;;;;;;0.70;0.40;;;2.50;99.90;;;;;;5035529;28;20441;-70
2021/12/09 00:20:47;;;;;;;0.67;0.40;;;2.50;99.90;;;;;;5034445;28;20458;-70
2021/12/09 00:23:13;;;;;;;0.70;0.40;;;2.60;99.90;;;;;;5033684;28;20637;-70
2021/12/09 00:25:39;;;;;;;0.70;0.60;;;2.70;99.90;;;;;;5033963;28;20413;-70
2021/12/09 00:28:05;;;;;;;1.70;1.27;;;2.80;99.90;;;;;;5035049;28;20783;-70
2021/12/09 00:30:32;;;;;;;0.77;0.67;;;2.90;99.90;;;;;;5035078;28;20234;-70
2021/12/09 00:32:59;;;;;;;0.70;0.40;;;2.80;99.90;;;;;;5035109;28;20454;-70
2021/12/09 00:35:31;;;;;;;1.17;1.07;;;2.80;99.90;;;;;;5033649;28;20406;-70
2021/12/09 00:38:02;;;;;;;0.70;0.40;;;2.90;99.90;;;;;;5033282;28;20466;-70
2021/12/09 00:40:27;;;;;;;0.67;0.40;;;2.90;99.90;;;;;;5032277;28;20947;-70
2021/12/09 00:42:53;;;;;;;0.70;0.70;;;2.80;99.90;;;;;;5033155;28;20405;-70
2021/12/09 00:45:21;;;;;;;0.67;0.50;;;2.80;99.90;;;;;;5032941;28;20170;-70
2021/12/09 00:47:47;;;;;;;0.70;0.50;;;2.80;99.90;;;;;;5033071;28;20414;-70
2021/12/09 00:50:12;;;;;;;0.70;0.40;;;2.80;99.90;;;;;;5032784;28;20410;-70
2021/12/09 00:52:38;;;;;;;0.70;0.60;;;2.80;99.90;;;;;;5032900;28;20227;-70
2021/12/09 00:55:06;;;;;;;0.63;0.50;;;2.70;99.90;;;;;;5032683;28;20237;-70
2021/12/09 00:57:32;;;;;;;0.70;0.60;;;2.70;99.90;;;;;;5032903;28;20177;-70
2021/12/09 00:59:58;;;;;;;0.80;0.80;;;2.70;99.90;;;;;;5032931;28;20406;-70
2021/12/09 01:02:24;;;;;;;0.60;0.47;;;2.70;99.90;;;;;;5032855;28;20191;-70
2021/12/09 01:04:50;;;;;;;0.70;0.50;;;2.70;99.90;;;;;;5032567;28;20476;-70
2021/12/09 01:07:16;;;;;;;0.80;0.63;;;2.60;99.90;;;;;;5033146;28;20178;-70
2021/12/09 01:09:41;;;;;;;0.70;0.40;;;2.60;99.90;;;;;;5032978;28;20176;-70
2021/12/09 01:12:08;;;;;;;0.93;0.70;;;2.60;99.90;;;;;;5032738;28;20199;-70
2021/12/09 01:14:36;;;;;;;0.70;0.60;;;2.60;99.90;;;;;;5033185;28;20164;-70
2021/12/09 01:17:06;;;;;;;0.70;0.43;;;2.50;99.90;;;;;;5032153;28;20417;-70
2021/12/09 01:19:32;;;;;;;0.70;0.40;;;2.40;99.90;;;;;;5033109;28;21046;-70
2021/12/09 01:21:57;;;;;;;0.70;0.40;;;2.40;99.90;;;;;;5032818;28;20512;-70
2021/12/09 01:24:23;;;;;;;0.63;0.40;;;2.40;99.90;;;;;;5032873;28;20179;-70
2021/12/09 01:26:49;;;;;;;0.70;0.50;;;2.40;99.90;;;;;;5032338;28;20168;-70
2021/12/09 01:29:19;;;;;;;0.67;0.40;;;2.30;99.90;;;;;;5032751;28;20167;-70
2021/12/09 01:31:54;;;;;;;0.70;0.47;;;2.20;99.90;;;;;;5032495;28;21159;-70
2021/12/09 01:34:21;;;;;;;0.70;0.50;;;2.20;99.90;;;;;;5032735;28;20894;-70
2021/12/09 01:36:49;;;;;;;0.70;0.50;;;2.00;99.90;;;;;;5064191;28;20435;-70
2021/12/09 01:39:15;;;;;;;0.70;0.50;;;2.00;99.90;;;;;;5032709;28;20439;-70
2021/12/09 01:41:41;;;;;;;0.70;0.50;;;2.00;99.90;;;;;;5032097;28;20429;-70
2021/12/09 01:44:07;;;;;;;0.70;0.50;;;1.90;99.90;;;;;;5032477;28;20432;-70
2021/12/09 01:46:33;;;;;;;2.77;1.37;;;2.00;99.90;;;;;;5032214;28;20202;-70
2021/12/09 01:48:59;;;;;;;0.70;0.50;;;2.10;99.90;;;;;;5032462;28;20591;-70
2021/12/09 01:51:25;;;;;;;0.93;0.90;;;2.00;99.90;;;;;;5032541;28;20861;-70
2021/12/09 01:53:51;;;;;;;1.03;0.73;;;1.90;99.90;;;;;;5032369;28;20413;-70
2021/12/09 01:56:21;;;;;;;0.63;0.43;;;1.90;99.90;;;;;;5032015;28;20425;-70
2021/12/09 01:58:52;;;;;;;0.70;0.50;;;1.90;99.90;;;;;;5032330;28;20910;-70
2021/12/09 02:01:19;;;;;;;0.70;0.50;;;1.90;99.90;;;;;;5032224;28;20911;-70
2021/12/09 02:03:45;;;;;;;0.70;0.50;;;1.90;99.90;;;;;;5032328;28;20399;-70
2021/12/09 02:06:11;;;;;;;0.70;0.50;;;1.80;99.90;;;;;;5030718;28;20418;-70
2021/12/09 02:08:37;;;;;;;0.70;0.50;;;1.80;99.90;;;;;;5032000;28;20425;-70
2021/12/09 02:11:03;;;;;;;0.80;0.80;;;1.70;99.90;;;;;;5031735;28;20776;-70
2021/12/09 02:13:29;;;;;;;0.70;0.50;;;1.60;99.90;;;;;;5031951;28;20167;-70
2021/12/09 02:15:56;;;;;;;0.70;0.40;;;1.70;99.90;;;;;;5031814;28;20413;-70
2021/12/09 02:18:22;;;;;;;0.70;0.60;;;1.50;99.90;;;;;;5031942;28;20403;-70
2021/12/09 02:21:10;;;;;;;0.70;0.40;;;1.40;99.90;;;;;;5031967;28;20528;-70
2021/12/09 02:23:37;;;;;;;0.70;0.40;;;1.50;99.90;;;;;;5032059;28;20397;-70
2021/12/09 02:26:04;;;;;;;0.70;0.50;;;1.50;99.90;;;;;;5031757;28;20410;-70
2021/12/09 02:28:30;;;;;;;0.70;0.40;;;1.30;99.90;;;;;;5035396;28;20802;-70
2021/12/09 02:30:56;;;;;;;0.70;0.40;;;1.30;99.90;;;;;;5035874;28;20864;-70
2021/12/09 02:33:21;;;;;;;0.70;0.50;;;1.30;99.90;;;;;;5035779;28;20468;-70
2021/12/09 02:35:47;;;;;;;0.70;0.40;;;1.40;99.90;;;;;;5035790;28;20412;-70
2021/12/09 02:38:13;;;;;;;0.70;0.50;;;1.40;99.90;;;;;;5035813;28;20172;-70
2021/12/09 02:40:38;;;;;;;0.70;0.40;;;1.50;99.90;;;;;;5067791;28;20179;-70
2021/12/09 02:43:08;;;;;;;0.60;0.40;;;1.50;99.90;;;;;;5035746;28;20187;-70
2021/12/09 02:45:34;;;;;;;0.70;0.50;;;1.50;99.90;;;;;;5035466;28;20179;-70
2021/12/09 02:47:59;;;;;;;0.70;0.40;;;1.60;99.90;;;;;;5035523;28;20405;-70
2021/12/09 02:50:25;;;;;;;0.60;0.40;;;1.60;99.90;;;;;;5035380;28;20934;-70
2021/12/09 02:52:51;;;;;;;1.63;1.50;;;1.60;99.90;;;;;;5035638;28;20209;-70
2021/12/09 02:55:16;;;;;;;0.70;0.50;;;1.60;99.90;;;;;;5035206;28;20236;-70
2021/12/09 02:57:42;;;;;;;0.70;0.50;;;1.70;99.90;;;;;;5035626;28;20167;-70
2021/12/09 03:00:09;;;;;;;0.67;0.50;;;1.60;99.90;;;;;;5035319;28;20172;-70
2021/12/09 03:02:37;;;;;;;0.70;0.60;;;1.50;99.90;;;;;;5050874;28;20215;-70
2021/12/09 03:05:06;;;;;;;0.80;0.63;;;1.50;99.90;;;;;;5035113;28;20464;-70
2021/12/09 03:07:36;;;;;;;0.60;0.40;;;1.60;99.90;;;;;;5035374;28;20417;-70
2021/12/09 03:10:18;;;;;;;0.70;0.50;;;1.50;99.90;;;;;;5035201;28;20405;-70
2021/12/09 03:12:43;;;;;;;1.47;0.83;;;1.40;99.90;;;;;;5035056;28;20502;-70
2021/12/09 03:15:10;;;;;;;2.07;1.97;;;1.40;99.90;;;;;;5034826;28;20434;-70
2021/12/09 03:17:38;;;;;;;0.70;0.50;;;1.40;99.90;;;;;;5035092;28;20681;-70
2021/12/09 03:20:05;;;;;;;0.60;0.40;;;1.40;99.90;;;;;;5035089;28;20401;-70
2021/12/09 03:22:31;;;;;;;0.70;0.40;;;1.50;99.90;;;;;;5033638;28;20453;-70
2021/12/09 03:24:57;;;;;;;0.80;0.80;;;1.40;99.90;;;;;;5034728;28;20412;-70
2021/12/09 03:27:22;;;;;;;0.70;0.47;;;1.40;99.90;;;;;;5034845;28;20171;-70
2021/12/09 03:29:48;;;;;;;0.70;0.50;;;1.40;99.90;;;;;;5034976;28;20258;-70
2021/12/09 03:32:18;;;;;;;0.70;0.50;;;1.30;99.90;;;;;;5034527;28;20199;-70
2021/12/09 03:34:45;;;;;;;0.70;0.50;;;1.30;99.90;;;;;;5034665;28;20170;-70
2021/12/09 03:37:17;;;;;;;0.70;0.40;;;1.20;99.90;;;;;;5034821;28;20429;-70
2021/12/09 03:39:43;;;;;;;0.70;0.60;;;1.20;99.90;;;;;;5034023;28;20763;-70
2021/12/09 03:42:13;;;;;;;0.80;0.70;;;1.10;99.90;;;;;;5034626;28;20799;-70
2021/12/09 03:44:39;;;;;;;0.70;0.40;;;1.00;99.90;;;;;;5034602;28;20406;-70
2021/12/09 03:47:07;;;;;;;0.70;0.40;;;1.00;99.90;;;;;;5034229;28;20415;-70
2021/12/09 03:49:32;;;;;;;0.70;0.47;;;1.00;99.90;;;;;;5034474;28;20770;-70
2021/12/09 03:51:58;;;;;;;0.70;0.40;;;1.00;99.90;;;;;;5034158;28;20480;-70
2021/12/09 03:54:24;;;;;;;0.60;0.40;;;1.10;99.90;;;;;;5034554;28;20275;-70
2021/12/09 03:56:50;;;;;;;1.27;1.17;;;1.10;99.90;;;;;;5034272;28;20442;-70
2021/12/09 03:59:16;;;;;;;0.70;0.40;;;1.10;99.90;;;;;;5034507;28;20429;-70
2021/12/09 04:01:43;;;;;;;0.67;0.40;;;1.00;99.90;;;;;;5034483;28;20456;-70
2021/12/09 04:04:09;;;;;;;0.60;0.40;;;1.00;99.90;;;;;;5033168;28;20690;-69
2021/12/09 04:06:36;;;;;;;1.53;0.80;;;1.00;99.90;;;;;;5049482;28;20989;-69
2021/12/09 04:09:08;;;;;;;0.70;0.40;;;1.00;99.90;;;;;;5034111;28;20776;-69
2021/12/09 04:11:33;;;;;;;0.60;0.40;;;1.10;99.90;;;;;;5034264;28;20887;-69
2021/12/09 04:13:59;;;;;;;0.70;0.50;;;1.20;99.90;;;;;;5034133;28;20457;-69
2021/12/09 04:16:25;;;;;;;0.60;0.40;;;1.30;99.90;;;;;;5033700;28;20424;-69
2021/12/09 04:18:51;;;;;;;0.70;0.60;;;1.30;99.90;;;;;;5034187;28;20249;-70
2021/12/09 04:21:16;;;;;;;0.60;0.50;;;1.40;99.90;;;;;;5034051;28;20182;-70
2021/12/09 04:23:42;;;;;;;0.60;0.40;;;1.30;99.90;;;;;;5033901;28;20253;-70
2021/12/09 04:26:08;;;;;;;0.60;0.40;;;1.30;99.90;;;;;;5033916;28;20525;-70
2021/12/09 04:28:35;;;;;;;1.10;1.07;;;1.40;99.90;;;;;;5034129;28;20174;-70
2021/12/09 04:31:01;;;;;;;0.70;0.50;;;1.40;99.90;;;;;;5033757;28;20446;-70
2021/12/09 04:33:29;;;;;;;0.70;0.53;;;1.20;99.90;;;;;;5032636;28;20461;-70
2021/12/09 04:35:55;;;;;;;0.70;0.50;;;1.20;99.90;;;;;;5033474;28;20767;-70
2021/12/09 04:38:21;;;;;;;0.70;0.50;;;1.10;99.90;;;;;;5033807;28;20410;-70
2021/12/09 04:40:46;;;;;;;0.70;0.60;;;1.10;99.90;;;;;;5033687;28;20794;-70
2021/12/09 04:43:12;;;;;;;0.70;0.50;;;1.00;99.90;;;;;;5033569;28;20201;-70
2021/12/09 04:45:39;;;;;;;0.90;0.70;;;1.00;99.90;;;;;;5033215;28;20164;-70
2021/12/09 04:48:06;;;;;;;0.70;0.60;;;1.00;99.90;;;;;;5033445;28;20164;-70
2021/12/09 04:50:33;;;;;;;0.70;0.40;;;1.00;99.90;;;;;;5031210;28;20421;-70
2021/12/09 04:52:58;;;;;;;0.70;0.40;;;1.00;99.90;;;;;;5033297;28;20446;-70
2021/12/09 04:55:24;;;;;;;0.70;0.60;;;0.90;99.90;;;;;;5033000;28;20429;-70
2021/12/09 04:57:49;;;;;;;0.63;0.40;;;0.90;99.90;;;;;;5033349;28;20163;-70
2021/12/09 05:00:20;;;;;;;0.60;0.40;;;0.90;99.90;;;;;;5065226;28;20571;-70
2021/12/09 05:03:07;;;;;;;0.70;0.60;;;0.90;99.90;;;;;;5033231;28;20194;-70
2021/12/09 05:05:37;;;;;;;0.90;0.63;;;0.90;99.90;;;;;;5048183;28;20963;-70
2021/12/09 05:08:06;;;;;;;0.67;0.40;;;0.80;99.90;;;;;;5065219;28;20932;-70
2021/12/09 05:10:36;;;;;;;0.60;0.50;;;0.80;99.90;;;;;;5033978;28;20416;-70
2021/12/09 05:13:04;;;;;;;0.63;0.40;;;0.80;99.90;;;;;;5033498;28;20511;-70
2021/12/09 05:15:30;;;;;;;0.60;0.40;;;0.70;99.90;;;;;;5032707;28;20407;-69
2021/12/09 05:17:55;;;;;;;0.67;0.50;;;0.60;99.90;;;;;;5033188;28;20421;-70
2021/12/09 05:20:22;;;;;;;0.70;0.40;;;0.60;99.90;;;;;;5032888;28;20433;-69
2021/12/09 05:22:48;;;;;;;0.70;0.43;;;0.60;99.90;;;;;;5032985;28;20265;-69
2021/12/09 05:25:13;;;;;;;0.70;0.50;;;0.60;99.90;;;;;;5032608;28;20672;-70
2021/12/09 05:27:39;;;;;;;0.70;0.40;;;0.50;99.90;;;;;;5032876;28;20184;-70
2021/12/09 05:30:08;;;;;;;0.70;0.40;;;0.50;99.90;;;;;;5064590;28;20182;-70
2021/12/09 05:32:34;;;;;;;0.70;0.50;;;0.50;99.90;;;;;;5032509;28;20206;-70
2021/12/09 05:35:01;;;;;;;0.70;0.40;;;0.40;99.90;;;;;;5048200;28;20841;-71
2021/12/09 05:37:27;;;;;;;0.70;0.40;;;0.40;99.90;;;;;;5032715;28;20914;-71
2021/12/09 05:39:54;;;;;;;0.60;0.40;;;0.30;99.90;;;;;;5033067;28;20469;-71
2021/12/09 05:42:22;;;;;;;0.70;0.40;;;0.30;99.90;;;;;;5032388;28;20431;-71
2021/12/09 05:44:48;;;;;;;2.40;2.30;;;0.40;99.90;;;;;;5032007;28;20449;-71
2021/12/09 05:47:14;;;;;;;0.60;0.40;;;0.30;99.90;;;;;;5032262;28;20791;-70
2021/12/09 05:49:43;;;;;;;0.60;0.40;;;0.30;99.90;;;;;;5031046;28;20417;-70
2021/12/09 05:52:09;;;;;;;3.53;1.27;;;0.30;99.90;;;;;;5032228;28;20667;-70
2021/12/09 05:54:36;;;;;;;0.70;0.40;;;0.40;99.90;;;;;;5032220;28;20438;-71
2021/12/09 05:57:02;;;;;;;0.70;0.50;;;0.40;99.90;;;;;;5063940;28;20434;-70
2021/12/09 05:59:28;;;;;;;0.70;0.40;;;0.40;99.90;;;;;;5032115;28;20494;-71
2021/12/09 06:01:53;;;;;;;0.70;0.50;;;0.30;99.90;;;;;;5031713;28;20488;-70
2021/12/09 06:04:21;;;;;;;0.70;0.50;;;0.40;99.90;;;;;;5032135;28;20184;-70
2021/12/09 06:06:47;;;;;;;1.37;1.27;;;0.40;99.90;;;;;;5031789;28;20175;-70
2021/12/09 06:09:13;;;;;;;0.60;0.40;;;0.30;99.90;;;;;;5032115;28;20413;-71
2021/12/09 06:11:41;;;;;;;0.70;0.50;;;0.20;99.90;;;;;;5032067;28;20464;-71
2021/12/09 06:14:08;;;;;;;0.60;0.50;;;0.20;99.90;;;;;;5032067;28;20970;-71
2021/12/09 06:16:34;;;;;;;0.60;0.40;;;0.20;99.90;;;;;;5031987;28;20407;-71
2021/12/09 06:19:01;;;;;;;0.70;0.50;;;0.20;99.90;;;;;;5032225;28;20468;-71
2021/12/09 06:21:27;;;;;;;0.60;0.40;;;0.10;99.90;;;;;;5031942;28;20444;-71
2021/12/09 06:23:54;;;;;;;0.70;0.40;;;0.10;99.90;;;;;;5063895;28;20509;-70
2021/12/09 06:26:20;;;;;;;0.70;0.40;;;0.10;99.90;;;;;;5031413;28;20421;-71
2021/12/09 06:28:46;;;;;;;0.70;0.40;;;0.10;99.90;;;;;;5031901;28;20410;-70
2021/12/09 06:31:11;;;;;;;0.70;0.40;;;0.10;99.90;;;;;;5031696;28;20819;-70
2021/12/09 06:33:37;;;;;;;0.70;0.40;;;0.20;99.90;;;;;;5031808;28;20179;-71
2021/12/09 06:36:03;;;;;;;0.67;0.53;;;0.30;99.90;;;;;;5031674;28;20569;-70
2021/12/09 06:38:29;;;;;;;0.60;0.40;;;0.30;99.90;;;;;;5031720;28;20167;-71
2021/12/09 06:40:55;;;;;;;0.70;0.40;;;0.40;99.90;;;;;;5031643;28;20421;-70
2021/12/09 06:43:22;;;;;;;0.70;0.50;;;0.30;99.90;;;;;;5030616;28;20417;-70
2021/12/09 06:45:48;;;;;;;0.60;0.40;;;0.30;99.90;;;;;;5031389;28;20430;-71
2021/12/09 06:48:14;;;;;;;0.70;0.63;;;0.30;99.90;;;;;;5031617;28;20420;-71
2021/12/09 06:50:40;;;;;;;0.70;0.50;;;0.30;99.90;;;;;;5046499;28;20417;-70
2021/12/09 06:53:05;;;;;;;5.03;3.03;;;0.20;99.90;;;;;;5031446;28;20202;-71
2021/12/09 06:55:31;;;;;;;0.60;0.40;;;0.30;99.90;;;;;;5031155;28;20433;-71
2021/12/09 06:57:57;;;;;;;0.60;0.40;;;0.30;99.90;;;;;;5031684;28;20178;-70
2021/12/09 07:00:27;;;;;;;0.70;0.50;;;0.40;99.90;;;;;;5031605;28;20957;-70
2021/12/09 07:02:53;;;;;;;0.63;0.40;;;0.40;99.90;;;;;;5031664;28;20552;-70
2021/12/09 07:05:21;;;;;;;0.63;0.40;;;0.40;99.90;;;;;;5031039;28;20416;-70
2021/12/09 07:07:47;;;;;;;0.70;0.43;;;0.40;99.90;;;;;;5031610;28;20778;-71
2021/12/09 07:10:14;;;;;;;0.60;0.50;;;0.40;99.90;;;;;;5031384;28;20414;-70
2021/12/09 07:12:40;;;;;;;0.60;0.40;;;0.40;99.90;;;;;;5029989;28;20203;-70
2021/12/09 07:15:08;;;;;;;0.70;0.60;;;0.40;99.90;;;;;;5033656;28;20410;-71
2021/12/09 07:17:34;;;;;;;0.60;0.47;;;0.40;99.90;;;;;;5035031;28;20877;-71
2021/12/09 07:20:01;;;;;;;0.70;0.50;;;0.40;99.90;;;;;;5034474;28;20414;-70
2021/12/09 07:22:27;;;;;;;0.60;0.40;;;0.50;99.90;;;;;;5034892;28;20429;-71
2021/12/09 07:24:52;;;;;;;0.60;0.40;;;0.50;99.90;;;;;;5034323;28;20480;-71
2021/12/09 07:27:18;;;;;;;0.60;0.40;;;0.60;99.90;;;;;;5034729;28;20202;-71
2021/12/09 07:29:43;;;;;;;0.60;0.40;;;0.60;99.90;;;;;;5034935;28;20808;-70
2021/12/09 07:32:09;;;;;;;0.60;0.40;;;0.60;99.90;;;;;;5034568;28;20214;-70
2021/12/09 07:34:36;;;;;;;1.30;0.83;;;0.60;99.90;;;;;;5034729;28;20161;-71
2021/12/09 07:37:04;;;;;;;0.70;0.50;;;0.60;99.90;;;;;;5034488;28;20492;-71
2021/12/09 07:39:31;;;;;;;0.60;0.40;;;0.60;99.90;;;;;;5034468;28;20912;-71
2021/12/09 07:41:59;;;;;;;0.60;0.40;;;0.60;99.90;;;;;;5034398;28;20516;-71
2021/12/09 07:44:26;;;;;;;0.60;0.40;;;0.60;99.90;;;;;;5034602;28;20840;-70
2021/12/09 07:46:53;;;;;;;0.63;0.50;;;0.70;99.90;;;;;;5034312;28;20491;-70
2021/12/09 07:49:19;;;;;;;0.60;0.50;;;0.80;99.90;;;;;;5034524;28;20421;-71
2021/12/09 07:51:45;;;;;;;0.60;0.50;;;0.80;99.90;;;;;;5034397;28;20959;-71
2021/12/09 07:54:11;;;;;;;0.60;0.40;;;0.90;99.90;;;;;;5034255;28;20741;-71
2021/12/09 07:56:37;;;;;;;0.63;0.50;;;0.90;99.90;;;;;;5033951;28;20422;-70
2021/12/09 07:59:02;;;;;;;0.63;0.47;;;1.00;99.90;;;;;;5034274;28;20160;-71
2021/12/09 08:01:29;;;;;;;0.60;0.50;;;1.10;99.90;;;;;;5034119;28;20180;-71
2021/12/09 08:03:55;;;;;;;0.60;0.40;;;1.10;99.90;;;;;;5034047;28;20221;-71
2021/12/09 08:06:20;;;;;;;0.60;0.40;;;1.30;99.90;;;;;;5033721;28;20406;-71
2021/12/09 08:08:46;;;;;;;1.77;1.67;;;1.50;99.90;;;;;;5033803;28;20413;-71
2021/12/09 08:11:12;;;;;;;0.60;0.40;;;1.60;99.90;;;;;;5033742;28;20247;-71
2021/12/09 08:13:37;;;;;;;0.60;0.40;;;1.80;99.90;;;;;;5033886;28;20163;-71
2021/12/09 08:16:03;;;;;;;0.60;0.40;;;2.00;99.90;;;;;;5033691;28;20163;-70
2021/12/09 08:18:32;;;;;;;0.60;0.40;;;2.40;99.90;;;;;;5033826;28;20242;-71
2021/12/09 08:21:00;;;;;;;0.70;0.50;;;2.80;99.90;;;;;;5065590;28;20195;-71
2021/12/09 08:23:26;;;;;;;0.70;0.50;;;3.40;99.90;;;;;;5033579;28;20836;-71
2021/12/09 08:25:53;;;;;;;0.70;0.50;;;3.90;99.90;;;;;;5033230;28;20407;-70
2021/12/09 08:28:19;;;;;;;0.70;0.50;;;4.30;99.90;;;;;;5033633;28;20399;-71
2021/12/09 08:30:44;;;;;;;0.70;0.40;;;4.60;99.90;;;;;;5033402;28;20495;-71
2021/12/09 08:33:10;;;;;;;0.70;0.47;;;5.10;99.90;;;;;;5048704;28;20200;-71
2021/12/09 08:35:37;;;;;;;0.70;0.50;;;5.20;99.90;;;;;;5033181;28;20206;-70
2021/12/09 08:38:05;;;;;;;0.90;0.73;;;5.40;99.90;;;;;;5048892;28;20283;-71
2021/12/09 08:40:31;;;;;;;0.80;0.77;;;6.10;99.90;;;;;;5033283;28;20411;-71
2021/12/09 08:42:56;;;;;;;0.80;0.77;;;6.30;99.90;;;;;;5033171;28;20409;-71
2021/12/09 08:45:23;;;;;;;1.40;1.30;;;6.80;99.90;;;;;;5033076;28;20798;-71
2021/12/09 08:47:49;;;;;;;0.70;0.50;;;7.10;99.90;;;;;;5033316;28;20178;-71
2021/12/09 08:50:19;;;;;;;0.70;0.50;;;6.50;99.90;;;;;;5033138;28;20421;-71
2021/12/09 08:52:46;;;;;;;7.13;1.53;;;6.50;99.90;;;;;;5032969;28;20902;-71
2021/12/09 08:55:12;;;;;;;0.70;0.50;;;7.00;99.90;;;;;;5032792;28;20497;-71
2021/12/09 08:57:38;;;;;;;1.80;1.70;;;7.40;99.90;;;;;;5033010;28;20765;-71
2021/12/09 09:00:08;;;;;;;1.43;0.80;;;7.60;99.90;;;;;;5032988;28;20460;-71
2021/12/09 09:02:36;;;;;;;0.83;0.80;;;7.70;99.90;;;;;;5032703;28;20241;-71
2021/12/09 09:05:02;;;;;;;0.73;0.57;;;8.10;99.90;;;;;;5032664;28;20399;-71
2021/12/09 09:07:27;;;;;;;0.70;0.60;;;8.80;99.90;;;;;;5034174;28;20768;-71
2021/12/09 09:09:53;;;;;;;0.70;0.50;;;9.30;99.90;;;;;;5033963;28;20412;-71
2021/12/09 09:12:19;;;;;;;3.00;1.20;;;9.70;99.90;;;;;;5064646;28;20213;-71
2021/12/09 09:14:44;;;;;;;0.73;0.57;;;9.20;99.90;;;;;;5032763;28;20222;-71
2021/12/09 09:17:10;;;;;;;1.10;1.00;;;8.90;99.90;;;;;;5064599;28;20171;-71
2021/12/09 09:19:36;;;;;;;0.87;0.70;;;8.80;99.90;;;;;;5032728;28;20168;-71
2021/12/09 09:22:03;;;;;;;0.70;0.50;;;8.60;99.90;;;;;;5032700;28;20263;-71
2021/12/09 09:24:29;;;;;;;1.00;0.90;;;8.50;99.90;;;;;;5032706;28;20406;-71
2021/12/09 09:26:55;;;;;;;1.10;1.00;;;8.30;99.90;;;;;;5032382;28;20471;-71
2021/12/09 09:29:21;;;;;;;1.37;0.80;;;8.50;99.90;;;;;;5032603;28;20402;-71
2021/12/09 09:31:47;;;;;;;1.53;1.17;;;8.30;99.90;;;;;;5032535;28;20199;-71
2021/12/09 09:34:13;;;;;;;0.80;0.57;;;8.30;99.90;;;;;;5032820;28;20456;-71
2021/12/09 09:36:44;;;;;;;0.70;0.50;;;8.30;99.90;;;;;;5046967;28;20176;-71
2021/12/09 09:39:18;;;;;;;0.70;0.50;;;8.80;99.90;;;;;;5032592;28;20406;-71
2021/12/09 09:41:53;;;;;;;0.70;0.50;;;8.70;99.90;;;;;;5032360;28;20517;-70
2021/12/09 09:44:22;;;;;;;0.70;0.50;;;8.80;99.90;;;;;;5047518;28;20422;-70
2021/12/09 09:46:48;;;;;;;2.50;1.03;;;8.70;99.90;;;;;;5030629;28;20418;-71
2021/12/09 09:49:13;;;;;;;1.80;1.70;;;8.80;99.90;;;;;;5032148;28;20425;-70
2021/12/09 09:51:40;;;;;;;0.73;0.60;;;8.90;99.90;;;;;;5032054;28;20207;-71
2021/12/09 09:54:06;;;;;;;0.70;0.50;;;9.20;99.90;;;;;;5032296;28;20170;-71
2021/12/09 09:56:34;;;;;;;0.70;0.57;;;9.70;99.90;;;;;;5031788;28;20429;-71
2021/12/09 09:59:06;;;;;;;0.70;0.50;;;9.70;99.90;;;;;;5032119;28;20410;-71
2021/12/09 10:01:34;;;;;;;0.70;0.60;;;10.20;99.90;;;;;;5031974;28;20419;-72
2021/12/09 10:04:19;;;;;;;0.80;0.73;;;10.10;99.90;;;;;;5032084;28;20789;-70
2021/12/09 10:06:46;;;;;;;0.70;0.50;;;11.20;99.90;;;;;;5031659;28;20923;-70
2021/12/09 10:09:12;;;;;;;0.70;0.50;;;11.80;99.90;;;;;;5031835;28;20406;-70
2021/12/09 10:11:38;;;;;;;1.27;1.17;;;12.10;99.90;;;;;;5031690;28;20458;-70
2021/12/09 10:14:10;;;;;;;0.97;0.80;;;12.10;99.90;;;;;;5031763;28;20498;-70
2021/12/09 10:16:38;;;;;;;1.33;1.23;;;12.10;99.90;;;;;;5031610;28;20407;-70
2021/12/09 10:19:15;;;;;;;1.00;0.90;;;12.80;99.90;;;;;;5031832;28;20418;-69
2021/12/09 10:21:41;;;;;;;1.50;0.80;;;12.80;99.90;;;;;;5031816;28;20991;-70
2021/12/09 10:24:07;;;;;;;2.83;1.23;;;12.80;99.90;;;;;;5030505;28;20421;-70
2021/12/09 10:26:44;;;;;;;0.70;0.60;;;12.90;99.90;;;;;;5031559;28;20761;-70
2021/12/09 10:29:24;;;;;;;1.10;0.80;;;13.20;99.90;;;;;;5031884;28;20410;-70
2021/12/09 10:31:56;;;;;;;1.47;0.73;;;13.40;99.90;;;;;;5031764;28;20457;-70
2021/12/09 10:34:39;;;;;;;2.13;1.10;;;13.80;99.90;;;;;;5031813;28;20406;-70
2021/12/09 10:37:10;;;;;;;0.70;0.50;;;13.30;99.90;;;;;;5031777;28;20771;-71
2021/12/09 10:39:46;;;;;;;0.80;0.80;;;12.10;99.90;;;;;;5032449;28;20485;-70
2021/12/09 10:42:31;;;;;;;0.70;0.50;;;11.20;99.90;;;;;;5048831;28;20446;-70
2021/12/09 10:44:58;;;;;;;0.70;0.50;;;9.80;99.90;;;;;;5046936;28;20497;-70
2021/12/09 10:47:46;;;;;;;0.93;0.70;;;9.20;99.90;;;;;;5031533;28;20436;-69
2021/12/09 10:52:55;;;;;;;0.70;0.50;;;7.70;99.90;;;;;;5035100;28;20457;-70
2021/12/09 10:55:36;;;;;;;0.70;0.50;;;7.10;99.90;;;;;;5034866;28;21065;-70
2021/12/09 10:58:08;;;;;;;0.70;0.40;;;7.00;99.90;;;;;;5034082;28;20493;-70
2021/12/09 11:00:42;;;;;;;0.70;0.50;;;6.80;99.90;;;;;;5035119;28;20414;-70
2021/12/09 11:03:07;;;;;;;3.70;1.67;;;6.60;99.90;;;;;;5035296;28;20402;-70
2021/12/09 11:05:36;;;;;;;0.70;0.50;;;6.30;99.90;;;;;;5034717;28;20406;-70
2021/12/09 11:08:12;;;;;;;1.07;0.60;;;6.30;99.90;;;;;;5035199;28;20703;-70
2021/12/09 11:10:45;;;;;;;0.70;0.60;;;6.30;99.90;;;;;;5034945;28;20459;-70
2021/12/09 11:13:11;;;;;;;0.70;0.50;;;5.90;99.90;;;;;;5034960;28;20482;-69
2021/12/09 11:15:55;;;;;;;0.83;0.83;;;5.90;99.90;;;;;;5034996;28;20433;-69
2021/12/09 11:18:34;;;;;;;0.70;0.40;;;6.00;99.90;;;;;;5035102;28;20601;-69
2021/12/09 11:21:03;;;;;;;0.70;0.50;;;5.90;99.90;;;;;;5034835;28;20428;-69
2021/12/09 11:23:36;;;;;;;0.70;0.50;;;5.90;99.90;;;;;;5035003;28;20406;-70
2021/12/09 11:26:27;;;;;;;1.60;1.50;;;5.80;99.90;;;;;;5033260;28;20472;-70
2021/12/09 11:28:58;;;;;;;0.70;0.50;;;5.90;99.90;;;;;;5034732;28;20481;-71
2021/12/09 11:31:27;;;;;;;0.70;0.50;;;5.80;99.90;;;;;;5034489;28;20948;-70
2021/12/09 11:33:58;;;;;;;4.10;1.10;;;5.70;99.90;;;;;;5034662;28;20413;-70
2021/12/09 11:36:46;;;;;;;0.70;0.50;;;5.70;99.90;;;;;;5066432;28;20476;-70
2021/12/09 11:39:19;;;;;;;1.13;1.00;;;5.70;99.90;;;;;;5034572;28;20946;-71
2021/12/09 11:41:45;;;;;;;0.70;0.40;;;5.70;99.90;;;;;;5034509;28;20453;-70
2021/12/09 11:44:11;;;;;;;1.37;1.27;;;5.70;99.90;;;;;;5034460;28;20414;-71
2021/12/09 11:46:40;;;;;;;0.87;0.60;;;5.70;99.90;;;;;;5034122;28;20480;-70
2021/12/09 11:49:07;;;;;;;0.70;0.50;;;5.60;99.90;;;;;;5034277;28;20406;-70
2021/12/09 11:51:33;;;;;;;0.70;0.50;;;5.60;99.90;;;;;;5034140;28;20769;-70
2021/12/09 11:54:01;;;;;;;0.70;0.40;;;5.60;99.90;;;;;;5035009;28;20410;-71
2021/12/09 11:56:44;;;;;;;0.70;0.40;;;5.70;99.90;;;;;;5035868;28;20836;-71
2021/12/09 12:11:16;;;;;;;0.70;0.50;;;5.50;99.90;;;;;;5034097;28;20484;-70
2021/12/09 12:13:50;;;;;;;1.10;1.00;;;5.50;99.90;;;;;;5033919;28;20450;-70
2021/12/09 12:19:15;;;;;;;1.27;0.87;;;5.50;99.90;;;;;;5033772;28;20408;-70
2021/12/09 12:27:14;;;;;;;0.97;0.87;;;5.60;99.90;;;;;;5033340;28;21159;-71
2021/12/09 12:30:13;;;;;;;1.70;1.60;;;5.60;99.90;;;;;;5033665;28;20394;-70
2021/12/09 12:35:50;;;;;;;0.70;0.70;;;5.60;99.90;;;;;;5033401;28;20784;-70
2021/12/09 12:38:34;;;;;;;0.70;0.50;;;5.60;99.90;;;;;;5033372;28;20418;-71
2021/12/09 12:41:11;;;;;;;0.70;0.50;;;5.70;99.90;;;;;;5065460;28;20462;-70
2021/12/09 12:43:50;;;;;;;0.70;0.50;;;5.80;99.90;;;;;;5033471;28;20438;-70
2021/12/09 12:46:54;;;;;;;1.07;0.97;;;5.80;99.90;;;;;;5033127;28;20409;-71
2021/12/09 12:52:06;;;;;;;0.70;0.53;;;5.90;99.90;;;;;;5033036;28;20451;-70
2021/12/09 12:57:16;;;;;;;1.90;0.90;;;5.90;99.90;;;;;;5034600;28;20413;-70
2021/12/09 13:00:00;;;;;;;0.70;0.50;;;5.90;99.90;;;;;;5033158;28;20812;-71
2021/12/09 13:05:16;;;;;;;0.70;0.47;;;5.80;99.90;;;;;;5034603;28;20402;-69
2021/12/09 13:13:37;;;;;;;0.70;0.50;;;5.80;99.90;;;;;;5034130;28;20453;-71
2021/12/09 13:21:58;;;;;;;0.70;0.50;;;5.80;99.90;;;;;;5034316;28;20419;-71
2021/12/09 13:25:00;;;;;;;2.50;1.23;;;5.80;99.90;;;;;;5034323;28;20406;-70
2021/12/09 13:27:51;;;;;;;1.17;1.07;;;5.70;99.90;;;;;;5033913;28;20403;-70
2021/12/09 13:35:52;;;;;;;0.70;0.40;;;5.90;99.90;;;;;;5033450;28;20395;-71
2021/12/09 13:47:06;;;;;;;0.70;0.60;;;6.10;99.90;;;;;;5033839;28;20401;-71
2021/12/09 13:50:36;;;;;;;0.70;0.50;;;6.10;99.90;;;;;;5034074;28;20429;-71
2021/12/09 13:55:07;;;;;;;0.70;0.40;;;6.00;99.90;;;;;;5033339;28;20823;-70
2021/12/09 13:57:46;;;;;;;0.70;0.50;;;5.90;99.90;;;;;;5033783;28;20900;-70
2021/12/09 14:00:25;;;;;;;0.70;0.40;;;5.90;99.90;;;;;;5033642;28;20409;-70
2021/12/09 14:02:56;;;;;;;0.70;0.50;;;5.80;99.90;;;;;;5033380;28;20475;-71
2021/12/09 14:05:23;;;;;;;0.70;0.50;;;5.80;99.90;;;;;;5033051;28;20467;-71